sensor_id;sensor_type;location;lat;lon;timestamp;P1;durP1;ratioP1;P2;durP2;ratioP2
64426;SDS011;50772;51.482;-0.580;2023-06-22T00:00:19;5.82;;;5.30;;
64426;SDS011;50772;51.482;-0.580;2023-06-22T00:02:45;6.25;;;5.70;;
64426;SDS011;50772;51.482;-0.580;2023-06-22T00:05:10;5.88;;;5.38;;
64426;SDS011;50772;51.482;-0.580;2023-06-22T00:07:35;7.63;;;5.97;;
64426;SDS011;50772;51.482;-0.580;2023-06-22T00:10:01;5.80;;;5.40;;
64426;SDS011;50772;51.482;-0.580;2023-06-22T00:12:26;6.05;;;5.47;;
64426;SDS011;50772;51.482;-0.580;2023-06-22T00:14:51;6.33;;;5.77;;
64426;SDS011;50772;51.482;-0.580;2023-06-22T00:17:16;6.50;;;5.93;;
64426;SDS011;50772;51.482;-0.580;2023-06-22T00:19:42;6.00;;;5.60;;
64426;SDS011;50772;51.482;-0.580;2023-06-22T00:22:07;6.32;;;5.45;;
64426;SDS011;50772;51.482;-0.580;2023-06-22T00:24:34;6.60;;;5.70;;
64426;SDS011;50772;51.482;-0.580;2023-06-22T00:26:59;7.05;;;6.38;;
64426;SDS011;50772;51.482;-0.580;2023-06-22T00:29:24;6.93;;;5.90;;
64426;SDS011;50772;51.482;-0.580;2023-06-22T00:31:52;6.03;;;5.50;;
64426;SDS011;50772;51.482;-0.580;2023-06-22T00:34:23;9.23;;;6.32;;
64426;SDS011;50772;51.482;-0.580;2023-06-22T00:36:48;6.95;;;6.13;;
64426;SDS011;50772;51.482;-0.580;2023-06-22T00:39:16;6.57;;;6.18;;
64426;SDS011;50772;51.482;-0.580;2023-06-22T00:41:41;6.10;;;5.60;;
64426;SDS011;50772;51.482;-0.580;2023-06-22T00:44:07;6.90;;;6.30;;
64426;SDS011;50772;51.482;-0.580;2023-06-22T00:46:33;8.18;;;6.22;;
64426;SDS011;50772;51.482;-0.580;2023-06-22T00:48:58;6.80;;;6.00;;
64426;SDS011;50772;51.482;-0.580;2023-06-22T00:51:24;6.47;;;5.80;;
64426;SDS011;50772;51.482;-0.580;2023-06-22T00:53:50;6.25;;;5.85;;
64426;SDS011;50772;51.482;-0.580;2023-06-22T00:56:16;7.03;;;6.35;;
64426;SDS011;50772;51.482;-0.580;2023-06-22T00:58:44;5.95;;;5.55;;
64426;SDS011;50772;51.482;-0.580;2023-06-22T01:01:09;5.95;;;5.60;;
64426;SDS011;50772;51.482;-0.580;2023-06-22T01:03:35;6.45;;;5.95;;
64426;SDS011;50772;51.482;-0.580;2023-06-22T01:06:02;6.78;;;5.80;;
64426;SDS011;50772;51.482;-0.580;2023-06-22T01:16:02;6.32;;;5.82;;
64426;SDS011;50772;51.482;-0.580;2023-06-22T01:18:28;8.13;;;6.68;;
64426;SDS011;50772;51.482;-0.580;2023-06-22T01:20:55;7.15;;;6.65;;
64426;SDS011;50772;51.482;-0.580;2023-06-22T01:26:17;6.82;;;6.35;;
64426;SDS011;50772;51.482;-0.580;2023-06-22T01:28:47;7.90;;;6.32;;
64426;SDS011;50772;51.482;-0.580;2023-06-22T01:31:14;10.65;;;6.38;;
64426;SDS011;50772;51.482;-0.580;2023-06-22T01:33:41;12.07;;;6.53;;
64426;SDS011;50772;51.482;-0.580;2023-06-22T01:36:07;7.15;;;6.65;;
64426;SDS011;50772;51.482;-0.580;2023-06-22T01:38:32;9.30;;;6.80;;
64426;SDS011;50772;51.482;-0.580;2023-06-22T01:41:04;7.43;;;6.18;;
64426;SDS011;50772;51.482;-0.580;2023-06-22T01:43:47;6.90;;;6.22;;
64426;SDS011;50772;51.482;-0.580;2023-06-22T01:46:13;7.40;;;6.72;;
64426;SDS011;50772;51.482;-0.580;2023-06-22T01:48:59;6.72;;;6.07;;
64426;SDS011;50772;51.482;-0.580;2023-06-22T01:51:32;7.03;;;6.25;;
64426;SDS011;50772;51.482;-0.580;2023-06-22T01:53:57;7.18;;;6.60;;
64426;SDS011;50772;51.482;-0.580;2023-06-22T01:56:22;7.83;;;6.10;;
64426;SDS011;50772;51.482;-0.580;2023-06-22T01:58:50;6.43;;;6.03;;
64426;SDS011;50772;51.482;-0.580;2023-06-22T02:01:16;7.25;;;6.72;;
64426;SDS011;50772;51.482;-0.580;2023-06-22T02:03:50;7.00;;;6.40;;
64426;SDS011;50772;51.482;-0.580;2023-06-22T02:06:19;6.72;;;6.22;;
64426;SDS011;50772;51.482;-0.580;2023-06-22T02:08:50;7.87;;;6.63;;
64426;SDS011;50772;51.482;-0.580;2023-06-22T02:11:25;6.63;;;6.10;;
64426;SDS011;50772;51.482;-0.580;2023-06-22T02:13:52;6.70;;;6.05;;
64426;SDS011;50772;51.482;-0.580;2023-06-22T02:16:20;7.47;;;6.10;;
64426;SDS011;50772;51.482;-0.580;2023-06-22T02:18:48;7.15;;;6.45;;
64426;SDS011;50772;51.482;-0.580;2023-06-22T02:21:19;7.45;;;6.70;;
64426;SDS011;50772;51.482;-0.580;2023-06-22T02:23:45;7.15;;;6.45;;
64426;SDS011;50772;51.482;-0.580;2023-06-22T02:26:10;6.67;;;6.17;;
64426;SDS011;50772;51.482;-0.580;2023-06-22T02:28:35;7.22;;;6.63;;
64426;SDS011;50772;51.482;-0.580;2023-06-22T02:31:01;7.13;;;6.57;;
64426;SDS011;50772;51.482;-0.580;2023-06-22T02:33:26;8.15;;;7.07;;
64426;SDS011;50772;51.482;-0.580;2023-06-22T02:35:52;7.65;;;6.95;;
64426;SDS011;50772;51.482;-0.580;2023-06-22T02:38:21;8.32;;;6.65;;
64426;SDS011;50772;51.482;-0.580;2023-06-22T02:40:46;7.88;;;6.70;;
64426;SDS011;50772;51.482;-0.580;2023-06-22T02:43:12;7.68;;;6.95;;
64426;SDS011;50772;51.482;-0.580;2023-06-22T02:45:37;10.43;;;6.75;;
64426;SDS011;50772;51.482;-0.580;2023-06-22T02:48:02;6.50;;;6.07;;
64426;SDS011;50772;51.482;-0.580;2023-06-22T02:50:28;7.55;;;6.57;;
64426;SDS011;50772;51.482;-0.580;2023-06-22T02:52:53;7.23;;;6.73;;
64426;SDS011;50772;51.482;-0.580;2023-06-22T02:55:18;7.35;;;6.38;;
64426;SDS011;50772;51.482;-0.580;2023-06-22T02:57:44;7.22;;;6.57;;
64426;SDS011;50772;51.482;-0.580;2023-06-22T03:00:12;6.85;;;6.15;;
64426;SDS011;50772;51.482;-0.580;2023-06-22T03:02:45;8.18;;;6.97;;
64426;SDS011;50772;51.482;-0.580;2023-06-22T03:05:11;9.65;;;6.90;;
64426;SDS011;50772;51.482;-0.580;2023-06-22T03:07:38;6.88;;;6.38;;
64426;SDS011;50772;51.482;-0.580;2023-06-22T03:10:04;6.60;;;6.10;;
64426;SDS011;50772;51.482;-0.580;2023-06-22T03:12:29;7.15;;;6.45;;
64426;SDS011;50772;51.482;-0.580;2023-06-22T03:14:54;10.35;;;6.78;;
64426;SDS011;50772;51.482;-0.580;2023-06-22T03:17:20;15.67;;;6.47;;
64426;SDS011;50772;51.482;-0.580;2023-06-22T03:19:45;6.57;;;6.13;;
64426;SDS011;50772;51.482;-0.580;2023-06-22T03:22:10;7.13;;;6.40;;
64426;SDS011;50772;51.482;-0.580;2023-06-22T03:24:38;6.73;;;6.07;;
64426;SDS011;50772;51.482;-0.580;2023-06-22T03:27:04;6.75;;;6.20;;
64426;SDS011;50772;51.482;-0.580;2023-06-22T03:29:30;5.72;;;5.40;;
64426;SDS011;50772;51.482;-0.580;2023-06-22T03:31:59;7.28;;;5.85;;
64426;SDS011;50772;51.482;-0.580;2023-06-22T03:34:27;6.38;;;5.78;;
64426;SDS011;50772;51.482;-0.580;2023-06-22T03:36:52;6.00;;;5.50;;
64426;SDS011;50772;51.482;-0.580;2023-06-22T03:39:17;6.80;;;6.30;;
64426;SDS011;50772;51.482;-0.580;2023-06-22T03:41:43;6.83;;;6.23;;
64426;SDS011;50772;51.482;-0.580;2023-06-22T03:44:08;6.50;;;5.87;;
64426;SDS011;50772;51.482;-0.580;2023-06-22T03:46:37;6.53;;;6.05;;
64426;SDS011;50772;51.482;-0.580;2023-06-22T03:49:02;6.25;;;5.88;;
64426;SDS011;50772;51.482;-0.580;2023-06-22T03:51:28;6.57;;;5.93;;
64426;SDS011;50772;51.482;-0.580;2023-06-22T03:53:53;8.88;;;6.18;;
64426;SDS011;50772;51.482;-0.580;2023-06-22T03:56:18;6.32;;;5.75;;
64426;SDS011;50772;51.482;-0.580;2023-06-22T03:58:45;6.80;;;6.20;;
64426;SDS011;50772;51.482;-0.580;2023-06-22T04:01:10;6.03;;;5.57;;
64426;SDS011;50772;51.482;-0.580;2023-06-22T04:03:38;5.53;;;5.13;;
64426;SDS011;50772;51.482;-0.580;2023-06-22T04:06:04;6.38;;;5.72;;
64426;SDS011;50772;51.482;-0.580;2023-06-22T04:08:29;11.18;;;6.30;;
64426;SDS011;50772;51.482;-0.580;2023-06-22T04:10:54;6.95;;;5.70;;
64426;SDS011;50772;51.482;-0.580;2023-06-22T04:13:20;6.68;;;5.95;;
64426;SDS011;50772;51.482;-0.580;2023-06-22T04:15:45;6.50;;;5.82;;
64426;SDS011;50772;51.482;-0.580;2023-06-22T04:18:10;9.07;;;7.05;;
64426;SDS011;50772;51.482;-0.580;2023-06-22T04:20:35;10.20;;;6.85;;
64426;SDS011;50772;51.482;-0.580;2023-06-22T04:23:01;7.22;;;6.55;;
64426;SDS011;50772;51.482;-0.580;2023-06-22T04:25:26;6.93;;;6.22;;
64426;SDS011;50772;51.482;-0.580;2023-06-22T04:27:52;7.30;;;6.68;;
64426;SDS011;50772;51.482;-0.580;2023-06-22T04:30:17;7.25;;;6.50;;
64426;SDS011;50772;51.482;-0.580;2023-06-22T04:32:43;8.43;;;6.93;;
64426;SDS011;50772;51.482;-0.580;2023-06-22T04:35:09;7.15;;;6.60;;
64426;SDS011;50772;51.482;-0.580;2023-06-22T04:37:34;7.70;;;6.47;;
64426;SDS011;50772;51.482;-0.580;2023-06-22T04:39:59;10.60;;;6.77;;
64426;SDS011;50772;51.482;-0.580;2023-06-22T04:42:27;8.05;;;6.85;;
64426;SDS011;50772;51.482;-0.580;2023-06-22T04:44:53;7.20;;;6.47;;
64426;SDS011;50772;51.482;-0.580;2023-06-22T04:47:18;7.57;;;6.95;;
64426;SDS011;50772;51.482;-0.580;2023-06-22T04:49:43;8.65;;;6.88;;
64426;SDS011;50772;51.482;-0.580;2023-06-22T04:52:10;8.68;;;6.78;;
64426;SDS011;50772;51.482;-0.580;2023-06-22T04:54:38;7.45;;;6.85;;
64426;SDS011;50772;51.482;-0.580;2023-06-22T04:57:04;9.80;;;6.35;;
64426;SDS011;50772;51.482;-0.580;2023-06-22T04:59:30;8.35;;;7.10;;
64426;SDS011;50772;51.482;-0.580;2023-06-22T05:01:59;8.00;;;6.32;;
64426;SDS011;50772;51.482;-0.580;2023-06-22T05:04:25;6.88;;;6.32;;
64426;SDS011;50772;51.482;-0.580;2023-06-22T05:06:52;8.05;;;6.72;;
64426;SDS011;50772;51.482;-0.580;2023-06-22T05:09:18;7.60;;;6.65;;
64426;SDS011;50772;51.482;-0.580;2023-06-22T05:11:44;7.45;;;6.70;;
64426;SDS011;50772;51.482;-0.580;2023-06-22T05:14:09;7.65;;;6.18;;
64426;SDS011;50772;51.482;-0.580;2023-06-22T05:16:37;7.55;;;6.50;;
64426;SDS011;50772;51.482;-0.580;2023-06-22T05:19:02;13.95;;;7.07;;
64426;SDS011;50772;51.482;-0.580;2023-06-22T05:21:28;7.57;;;6.93;;
64426;SDS011;50772;51.482;-0.580;2023-06-22T05:23:54;7.45;;;6.68;;
64426;SDS011;50772;51.482;-0.580;2023-06-22T05:26:21;8.13;;;7.03;;
64426;SDS011;50772;51.482;-0.580;2023-06-22T05:28:46;7.03;;;6.43;;
64426;SDS011;50772;51.482;-0.580;2023-06-22T05:31:15;6.70;;;6.15;;
64426;SDS011;50772;51.482;-0.580;2023-06-22T05:33:41;6.65;;;6.00;;
64426;SDS011;50772;51.482;-0.580;2023-06-22T05:36:07;8.00;;;6.32;;
64426;SDS011;50772;51.482;-0.580;2023-06-22T05:38:34;7.78;;;7.13;;
64426;SDS011;50772;51.482;-0.580;2023-06-22T05:40:59;7.28;;;6.68;;
64426;SDS011;50772;51.482;-0.580;2023-06-22T05:43:25;8.67;;;6.87;;
64426;SDS011;50772;51.482;-0.580;2023-06-22T05:45:50;8.15;;;7.38;;
64426;SDS011;50772;51.482;-0.580;2023-06-22T05:48:15;7.00;;;6.60;;
64426;SDS011;50772;51.482;-0.580;2023-06-22T05:50:40;7.18;;;6.47;;
64426;SDS011;50772;51.482;-0.580;2023-06-22T05:53:06;7.30;;;6.60;;
64426;SDS011;50772;51.482;-0.580;2023-06-22T05:55:32;7.88;;;7.03;;
64426;SDS011;50772;51.482;-0.580;2023-06-22T05:58:00;7.95;;;6.65;;
64426;SDS011;50772;51.482;-0.580;2023-06-22T06:00:25;7.40;;;6.45;;
64426;SDS011;50772;51.482;-0.580;2023-06-22T06:02:50;7.07;;;6.47;;
64426;SDS011;50772;51.482;-0.580;2023-06-22T06:05:15;7.00;;;6.50;;
64426;SDS011;50772;51.482;-0.580;2023-06-22T06:07:44;7.60;;;6.82;;
64426;SDS011;50772;51.482;-0.580;2023-06-22T06:10:10;6.95;;;6.32;;
64426;SDS011;50772;51.482;-0.580;2023-06-22T06:12:38;7.18;;;6.45;;
64426;SDS011;50772;51.482;-0.580;2023-06-22T06:15:06;7.72;;;7.03;;
64426;SDS011;50772;51.482;-0.580;2023-06-22T06:17:31;8.45;;;7.07;;
64426;SDS011;50772;51.482;-0.580;2023-06-22T06:19:58;9.15;;;7.20;;
64426;SDS011;50772;51.482;-0.580;2023-06-22T06:22:28;7.82;;;7.22;;
64426;SDS011;50772;51.482;-0.580;2023-06-22T06:24:56;7.97;;;7.30;;
64426;SDS011;50772;51.482;-0.580;2023-06-22T06:27:22;7.88;;;7.38;;
64426;SDS011;50772;51.482;-0.580;2023-06-22T06:29:54;7.22;;;6.43;;
64426;SDS011;50772;51.482;-0.580;2023-06-22T06:32:19;5.80;;;5.50;;
64426;SDS011;50772;51.482;-0.580;2023-06-22T06:34:44;6.90;;;6.40;;
64426;SDS011;50772;51.482;-0.580;2023-06-22T06:37:09;6.33;;;5.83;;
64426;SDS011;50772;51.482;-0.580;2023-06-22T06:39:37;5.68;;;5.28;;
64426;SDS011;50772;51.482;-0.580;2023-06-22T06:42:03;5.37;;;4.97;;
64426;SDS011;50772;51.482;-0.580;2023-06-22T06:44:32;7.63;;;4.80;;
64426;SDS011;50772;51.482;-0.580;2023-06-22T06:46:57;4.88;;;4.57;;
64426;SDS011;50772;51.482;-0.580;2023-06-22T06:49:25;5.17;;;4.67;;
64426;SDS011;50772;51.482;-0.580;2023-06-22T06:51:50;5.00;;;4.35;;
64426;SDS011;50772;51.482;-0.580;2023-06-22T06:54:16;4.83;;;4.53;;
64426;SDS011;50772;51.482;-0.580;2023-06-22T06:56:41;4.90;;;4.57;;
64426;SDS011;50772;51.482;-0.580;2023-06-22T06:59:09;4.70;;;4.35;;
64426;SDS011;50772;51.482;-0.580;2023-06-22T07:02:20;4.33;;;3.93;;
64426;SDS011;50772;51.482;-0.580;2023-06-22T07:04:31;6.35;;;4.40;;
64426;SDS011;50772;51.482;-0.580;2023-06-22T07:07:08;4.27;;;4.07;;
64426;SDS011;50772;51.482;-0.580;2023-06-22T07:12:37;4.50;;;4.10;;
64426;SDS011;50772;51.482;-0.580;2023-06-22T07:15:06;4.05;;;3.85;;
64426;SDS011;50772;51.482;-0.580;2023-06-22T07:17:34;4.20;;;4.00;;
64426;SDS011;50772;51.482;-0.580;2023-06-22T07:20:00;4.55;;;4.25;;
64426;SDS011;50772;51.482;-0.580;2023-06-22T07:22:25;5.55;;;4.00;;
64426;SDS011;50772;51.482;-0.580;2023-06-22T07:24:50;4.13;;;3.83;;
64426;SDS011;50772;51.482;-0.580;2023-06-22T07:27:16;3.83;;;3.63;;
64426;SDS011;50772;51.482;-0.580;2023-06-22T07:29:44;4.20;;;3.80;;
64426;SDS011;50772;51.482;-0.580;2023-06-22T07:32:09;4.80;;;4.40;;
64426;SDS011;50772;51.482;-0.580;2023-06-22T07:34:35;4.30;;;4.00;;
64426;SDS011;50772;51.482;-0.580;2023-06-22T07:37:00;4.40;;;4.00;;
64426;SDS011;50772;51.482;-0.580;2023-06-22T07:39:26;4.07;;;3.85;;
64426;SDS011;50772;51.482;-0.580;2023-06-22T07:41:51;3.97;;;3.70;;
64426;SDS011;50772;51.482;-0.580;2023-06-22T07:44:17;4.00;;;3.70;;
64426;SDS011;50772;51.482;-0.580;2023-06-22T07:46:44;3.92;;;3.63;;
64426;SDS011;50772;51.482;-0.580;2023-06-22T07:49:10;5.13;;;3.73;;
64426;SDS011;50772;51.482;-0.580;2023-06-22T07:51:35;6.03;;;3.43;;
64426;SDS011;50772;51.482;-0.580;2023-06-22T07:54:00;4.83;;;4.17;;
64426;SDS011;50772;51.482;-0.580;2023-06-22T07:56:25;3.30;;;3.10;;
64426;SDS011;50772;51.482;-0.580;2023-06-22T07:58:51;3.43;;;3.23;;
64426;SDS011;50772;51.482;-0.580;2023-06-22T08:01:16;3.22;;;3.08;;
64426;SDS011;50772;51.482;-0.580;2023-06-22T08:03:45;3.15;;;3.00;;
64426;SDS011;50772;51.482;-0.580;2023-06-22T08:06:10;4.32;;;3.22;;
64426;SDS011;50772;51.482;-0.580;2023-06-22T08:08:36;3.53;;;3.22;;
64426;SDS011;50772;51.482;-0.580;2023-06-22T08:11:01;8.93;;;3.38;;
64426;SDS011;50772;51.482;-0.580;2023-06-22T08:13:26;3.70;;;2.97;;
64426;SDS011;50772;51.482;-0.580;2023-06-22T08:15:52;2.93;;;2.73;;
64426;SDS011;50772;51.482;-0.580;2023-06-22T08:18:17;3.70;;;3.17;;
64426;SDS011;50772;51.482;-0.580;2023-06-22T08:20:42;5.97;;;3.50;;
64426;SDS011;50772;51.482;-0.580;2023-06-22T08:23:07;4.73;;;3.53;;
64426;SDS011;50772;51.482;-0.580;2023-06-22T08:25:33;3.13;;;2.87;;
64426;SDS011;50772;51.482;-0.580;2023-06-22T08:27:59;3.45;;;3.20;;
64426;SDS011;50772;51.482;-0.580;2023-06-22T08:30:24;3.22;;;3.00;;
64426;SDS011;50772;51.482;-0.580;2023-06-22T08:32:50;4.90;;;2.92;;
64426;SDS011;50772;51.482;-0.580;2023-06-22T08:35:15;3.77;;;2.90;;
64426;SDS011;50772;51.482;-0.580;2023-06-22T08:37:40;4.38;;;2.85;;
64426;SDS011;50772;51.482;-0.580;2023-06-22T08:40:07;2.77;;;2.53;;
64426;SDS011;50772;51.482;-0.580;2023-06-22T08:42:33;2.95;;;2.78;;
64426;SDS011;50772;51.482;-0.580;2023-06-22T08:44:59;3.37;;;3.07;;
64426;SDS011;50772;51.482;-0.580;2023-06-22T08:47:24;3.73;;;2.93;;
64426;SDS011;50772;51.482;-0.580;2023-06-22T08:49:52;3.00;;;2.53;;
64426;SDS011;50772;51.482;-0.580;2023-06-22T08:52:19;2.65;;;2.50;;
64426;SDS011;50772;51.482;-0.580;2023-06-22T08:54:45;2.80;;;2.63;;
64426;SDS011;50772;51.482;-0.580;2023-06-22T08:57:10;2.22;;;2.03;;
64426;SDS011;50772;51.482;-0.580;2023-06-22T08:59:35;2.23;;;2.13;;
64426;SDS011;50772;51.482;-0.580;2023-06-22T09:02:01;2.17;;;2.07;;
64426;SDS011;50772;51.482;-0.580;2023-06-22T09:04:29;2.10;;;2.00;;
64426;SDS011;50772;51.482;-0.580;2023-06-22T09:06:54;2.40;;;2.25;;
64426;SDS011;50772;51.482;-0.580;2023-06-22T09:09:20;2.47;;;2.20;;
64426;SDS011;50772;51.482;-0.580;2023-06-22T09:11:46;2.25;;;2.13;;
64426;SDS011;50772;51.482;-0.580;2023-06-22T09:14:12;2.65;;;2.10;;
64426;SDS011;50772;51.482;-0.580;2023-06-22T09:16:37;2.43;;;2.07;;
64426;SDS011;50772;51.482;-0.580;2023-06-22T09:19:05;2.13;;;2.03;;
64426;SDS011;50772;51.482;-0.580;2023-06-22T09:21:30;1.77;;;1.73;;
64426;SDS011;50772;51.482;-0.580;2023-06-22T09:23:56;2.03;;;1.93;;
64426;SDS011;50772;51.482;-0.580;2023-06-22T09:26:21;2.22;;;2.13;;
64426;SDS011;50772;51.482;-0.580;2023-06-22T09:28:48;5.07;;;2.25;;
64426;SDS011;50772;51.482;-0.580;2023-06-22T09:31:14;2.08;;;1.98;;
64426;SDS011;50772;51.482;-0.580;2023-06-22T09:33:41;2.35;;;2.15;;
64426;SDS011;50772;51.482;-0.580;2023-06-22T09:36:09;2.17;;;2.08;;
64426;SDS011;50772;51.482;-0.580;2023-06-22T09:38:37;2.10;;;2.00;;
64426;SDS011;50772;51.482;-0.580;2023-06-22T09:41:03;2.15;;;1.98;;
64426;SDS011;50772;51.482;-0.580;2023-06-22T09:43:34;4.35;;;2.20;;
64426;SDS011;50772;51.482;-0.580;2023-06-22T09:46:01;1.85;;;1.75;;
64426;SDS011;50772;51.482;-0.580;2023-06-22T09:48:27;2.15;;;1.90;;
64426;SDS011;50772;51.482;-0.580;2023-06-22T09:50:55;2.08;;;1.98;;
64426;SDS011;50772;51.482;-0.580;2023-06-22T09:53:20;2.10;;;2.00;;
64426;SDS011;50772;51.482;-0.580;2023-06-22T09:55:46;2.23;;;2.13;;
64426;SDS011;50772;51.482;-0.580;2023-06-22T09:58:11;6.00;;;2.13;;
64426;SDS011;50772;51.482;-0.580;2023-06-22T10:00:36;2.25;;;1.92;;
64426;SDS011;50772;51.482;-0.580;2023-06-22T10:03:02;2.80;;;2.20;;
64426;SDS011;50772;51.482;-0.580;2023-06-22T10:05:27;2.13;;;1.90;;
64426;SDS011;50772;51.482;-0.580;2023-06-22T10:07:55;3.63;;;1.97;;
64426;SDS011;50772;51.482;-0.580;2023-06-22T10:10:21;2.10;;;2.00;;
64426;SDS011;50772;51.482;-0.580;2023-06-22T10:12:47;2.27;;;2.13;;
64426;SDS011;50772;51.482;-0.580;2023-06-22T10:15:12;3.08;;;1.90;;
64426;SDS011;50772;51.482;-0.580;2023-06-22T10:17:37;2.08;;;1.98;;
64426;SDS011;50772;51.482;-0.580;2023-06-22T10:20:05;2.25;;;2.05;;
64426;SDS011;50772;51.482;-0.580;2023-06-22T10:22:45;2.00;;;1.90;;
64426;SDS011;50772;51.482;-0.580;2023-06-22T10:25:11;2.10;;;2.00;;
64426;SDS011;50772;51.482;-0.580;2023-06-22T10:27:37;1.90;;;1.80;;
64426;SDS011;50772;51.482;-0.580;2023-06-22T10:30:05;2.17;;;2.03;;
64426;SDS011;50772;51.482;-0.580;2023-06-22T10:32:33;3.03;;;1.67;;
64426;SDS011;50772;51.482;-0.580;2023-06-22T10:34:58;2.63;;;1.90;;
64426;SDS011;50772;51.482;-0.580;2023-06-22T10:37:25;3.25;;;1.70;;
64426;SDS011;50772;51.482;-0.580;2023-06-22T10:39:50;2.75;;;2.08;;
64426;SDS011;50772;51.482;-0.580;2023-06-22T10:42:15;3.47;;;1.93;;
64426;SDS011;50772;51.482;-0.580;2023-06-22T10:44:41;1.65;;;1.55;;
64426;SDS011;50772;51.482;-0.580;2023-06-22T10:47:08;2.08;;;1.90;;
64426;SDS011;50772;51.482;-0.580;2023-06-22T10:49:37;1.92;;;1.83;;
64426;SDS011;50772;51.482;-0.580;2023-06-22T10:52:03;2.40;;;1.70;;
64426;SDS011;50772;51.482;-0.580;2023-06-22T10:54:28;1.88;;;1.77;;
64426;SDS011;50772;51.482;-0.580;2023-06-22T10:56:54;1.77;;;1.67;;
64426;SDS011;50772;51.482;-0.580;2023-06-22T10:59:20;2.00;;;1.90;;
64426;SDS011;50772;51.482;-0.580;2023-06-22T11:01:48;1.80;;;1.70;;
64426;SDS011;50772;51.482;-0.580;2023-06-22T11:04:13;2.50;;;2.10;;
64426;SDS011;50772;51.482;-0.580;2023-06-22T11:06:41;1.87;;;1.77;;
64426;SDS011;50772;51.482;-0.580;2023-06-22T11:09:06;2.00;;;1.90;;
64426;SDS011;50772;51.482;-0.580;2023-06-22T11:11:32;1.85;;;1.83;;
64426;SDS011;50772;51.482;-0.580;2023-06-22T11:13:57;2.17;;;1.88;;
64426;SDS011;50772;51.482;-0.580;2023-06-22T11:16:22;1.77;;;1.67;;
64426;SDS011;50772;51.482;-0.580;2023-06-22T11:18:47;1.83;;;1.80;;
64426;SDS011;50772;51.482;-0.580;2023-06-22T11:21:13;9.90;;;2.70;;
64426;SDS011;50772;51.482;-0.580;2023-06-22T11:23:38;51.67;;;2.70;;
64426;SDS011;50772;51.482;-0.580;2023-06-22T11:26:16;1.92;;;1.70;;
64426;SDS011;50772;51.482;-0.580;2023-06-22T11:28:41;2.08;;;1.85;;
64426;SDS011;50772;51.482;-0.580;2023-06-22T11:31:06;1.77;;;1.77;;
64426;SDS011;50772;51.482;-0.580;2023-06-22T11:33:47;1.90;;;1.80;;
64426;SDS011;50772;51.482;-0.580;2023-06-22T11:36:22;1.80;;;1.70;;
64426;SDS011;50772;51.482;-0.580;2023-06-22T11:38:47;2.80;;;2.15;;
64426;SDS011;50772;51.482;-0.580;2023-06-22T11:41:13;1.95;;;1.85;;
64426;SDS011;50772;51.482;-0.580;2023-06-22T11:43:38;2.08;;;1.95;;
64426;SDS011;50772;51.482;-0.580;2023-06-22T11:46:04;2.20;;;1.90;;
64426;SDS011;50772;51.482;-0.580;2023-06-22T11:48:29;1.90;;;1.80;;
64426;SDS011;50772;51.482;-0.580;2023-06-22T11:50:56;1.65;;;1.55;;
64426;SDS011;50772;51.482;-0.580;2023-06-22T11:53:22;2.20;;;2.00;;
64426;SDS011;50772;51.482;-0.580;2023-06-22T11:55:47;1.67;;;1.67;;
64426;SDS011;50772;51.482;-0.580;2023-06-22T11:58:12;2.23;;;2.03;;
64426;SDS011;50772;51.482;-0.580;2023-06-22T12:00:45;1.80;;;1.70;;
64426;SDS011;50772;51.482;-0.580;2023-06-22T12:03:29;1.67;;;1.60;;
64426;SDS011;50772;51.482;-0.580;2023-06-22T12:08:45;1.60;;;1.50;;
64426;SDS011;50772;51.482;-0.580;2023-06-22T12:11:13;1.80;;;1.70;;
64426;SDS011;50772;51.482;-0.580;2023-06-22T12:13:42;1.70;;;1.60;;
64426;SDS011;50772;51.482;-0.580;2023-06-22T12:16:07;1.88;;;1.75;;
64426;SDS011;50772;51.482;-0.580;2023-06-22T12:18:45;2.22;;;1.70;;
64426;SDS011;50772;51.482;-0.580;2023-06-22T12:21:12;1.40;;;1.40;;
64426;SDS011;50772;51.482;-0.580;2023-06-22T12:23:38;1.83;;;1.73;;
64426;SDS011;50772;51.482;-0.580;2023-06-22T12:26:05;1.77;;;1.73;;
64426;SDS011;50772;51.482;-0.580;2023-06-22T12:28:33;1.77;;;1.70;;
64426;SDS011;50772;51.482;-0.580;2023-06-22T12:31:01;1.95;;;1.85;;
64426;SDS011;50772;51.482;-0.580;2023-06-22T12:33:29;1.73;;;1.63;;
64426;SDS011;50772;51.482;-0.580;2023-06-22T12:35:55;1.50;;;1.50;;
64426;SDS011;50772;51.482;-0.580;2023-06-22T12:38:23;2.42;;;1.60;;
64426;SDS011;50772;51.482;-0.580;2023-06-22T12:40:54;1.67;;;1.58;;
64426;SDS011;50772;51.482;-0.580;2023-06-22T12:46:17;1.50;;;1.50;;
64426;SDS011;50772;51.482;-0.580;2023-06-22T12:49:05;1.60;;;1.50;;
64426;SDS011;50772;51.482;-0.580;2023-06-22T12:51:31;1.70;;;1.60;;
64426;SDS011;50772;51.482;-0.580;2023-06-22T12:54:17;1.50;;;1.50;;
64426;SDS011;50772;51.482;-0.580;2023-06-22T12:56:45;1.92;;;1.83;;
64426;SDS011;50772;51.482;-0.580;2023-06-22T12:59:15;1.70;;;1.70;;
64426;SDS011;50772;51.482;-0.580;2023-06-22T13:04:37;1.70;;;1.60;;
64426;SDS011;50772;51.482;-0.580;2023-06-22T13:07:02;1.70;;;1.70;;
64426;SDS011;50772;51.482;-0.580;2023-06-22T13:09:35;1.70;;;1.60;;
64426;SDS011;50772;51.482;-0.580;2023-06-22T13:12:01;2.05;;;1.58;;
64426;SDS011;50772;51.482;-0.580;2023-06-22T13:14:27;6.20;;;1.80;;
64426;SDS011;50772;51.482;-0.580;2023-06-22T13:17:02;1.90;;;1.80;;
64426;SDS011;50772;51.482;-0.580;2023-06-22T13:19:29;1.80;;;1.70;;
64426;SDS011;50772;51.482;-0.580;2023-06-22T13:21:59;1.95;;;1.85;;
64426;SDS011;50772;51.482;-0.580;2023-06-22T13:24:28;1.67;;;1.58;;
64426;SDS011;50772;51.482;-0.580;2023-06-22T13:26:56;1.83;;;1.70;;
64426;SDS011;50772;51.482;-0.580;2023-06-22T13:29:27;1.70;;;1.60;;
64426;SDS011;50772;51.482;-0.580;2023-06-22T13:31:58;1.80;;;1.70;;
64426;SDS011;50772;51.482;-0.580;2023-06-22T13:34:35;1.80;;;1.70;;
64426;SDS011;50772;51.482;-0.580;2023-06-22T13:37:14;1.60;;;1.60;;
64426;SDS011;50772;51.482;-0.580;2023-06-22T13:39:45;1.50;;;1.50;;
64426;SDS011;50772;51.482;-0.580;2023-06-22T13:42:11;1.77;;;1.67;;
64426;SDS011;50772;51.482;-0.580;2023-06-22T13:44:46;1.90;;;1.80;;
64426;SDS011;50772;51.482;-0.580;2023-06-22T13:47:19;3.92;;;2.10;;
64426;SDS011;50772;51.482;-0.580;2023-06-22T13:52:35;1.70;;;1.60;;
64426;SDS011;50772;51.482;-0.580;2023-06-22T13:55:01;3.03;;;1.98;;
64426;SDS011;50772;51.482;-0.580;2023-06-22T14:00:13;1.90;;;1.80;;
64426;SDS011;50772;51.482;-0.580;2023-06-22T14:02:38;1.75;;;1.65;;
64426;SDS011;50772;51.482;-0.580;2023-06-22T14:05:05;1.92;;;1.73;;
64426;SDS011;50772;51.482;-0.580;2023-06-22T14:07:41;1.60;;;1.50;;
64426;SDS011;50772;51.482;-0.580;2023-06-22T14:10:11;1.58;;;1.58;;
64426;SDS011;50772;51.482;-0.580;2023-06-22T14:15:18;1.63;;;1.60;;
64426;SDS011;50772;51.482;-0.580;2023-06-22T14:17:47;1.40;;;1.40;;
64426;SDS011;50772;51.482;-0.580;2023-06-22T14:21:08;1.42;;;1.40;;
64426;SDS011;50772;51.482;-0.580;2023-06-22T14:23:34;1.77;;;1.75;;
64426;SDS011;50772;51.482;-0.580;2023-06-22T14:26:09;1.48;;;1.42;;
64426;SDS011;50772;51.482;-0.580;2023-06-22T14:29:08;1.60;;;1.60;;
64426;SDS011;50772;51.482;-0.580;2023-06-22T14:31:36;1.50;;;1.50;;
64426;SDS011;50772;51.482;-0.580;2023-06-22T14:34:05;1.48;;;1.48;;
64426;SDS011;50772;51.482;-0.580;2023-06-22T14:36:43;1.52;;;1.48;;
64426;SDS011;50772;51.482;-0.580;2023-06-22T14:42:08;1.60;;;1.60;;
64426;SDS011;50772;51.482;-0.580;2023-06-22T14:44:44;1.42;;;1.42;;
64426;SDS011;50772;51.482;-0.580;2023-06-22T14:49:54;1.95;;;1.80;;
64426;SDS011;50772;51.482;-0.580;2023-06-22T14:52:20;1.38;;;1.35;;
64426;SDS011;50772;51.482;-0.580;2023-06-22T14:54:47;1.90;;;1.80;;
64426;SDS011;50772;51.482;-0.580;2023-06-22T14:57:36;1.98;;;1.80;;
64426;SDS011;50772;51.482;-0.580;2023-06-22T15:00:05;1.60;;;1.60;;
64426;SDS011;50772;51.482;-0.580;2023-06-22T15:04:56;1.90;;;1.80;;
64426;SDS011;50772;51.482;-0.580;2023-06-22T15:07:23;1.60;;;1.60;;
64426;SDS011;50772;51.482;-0.580;2023-06-22T15:09:48;2.35;;;1.60;;
64426;SDS011;50772;51.482;-0.580;2023-06-22T15:12:14;2.07;;;1.60;;